createdAt,value
2023-05-02T05:22:21.109Z,586.4615
2023-05-02T05:23:15.261Z,513.0000
2023-05-02T05:24:17.115Z,504.9231
2023-05-02T05:25:18.948Z,504.2308
2023-05-02T05:26:20.790Z,503.7692
2023-05-02T05:27:22.647Z,504.6154
2023-05-02T05:28:24.486Z,506.6923
2023-05-02T05:29:26.339Z,509.8462
2023-05-02T05:30:28.186Z,513.6154
2023-05-02T05:31:30.063Z,517.4615
2023-05-02T05:32:31.852Z,520.1539
2023-05-02T05:33:33.712Z,527.6923
2023-05-02T05:34:35.552Z,540.6154
2023-05-02T05:35:37.358Z,559.0769
2023-05-02T05:36:39.193Z,559.0000
2023-05-02T05:37:41.024Z,554.3846
2023-05-02T05:38:42.972Z,531.3077
2023-05-02T05:39:44.722Z,516.6154
2023-05-02T05:40:46.576Z,518.6923
2023-05-02T05:41:48.411Z,520.8461
2023-05-02T05:42:50.255Z,523.2308
2023-05-02T05:43:52.084Z,524.9231
2023-05-02T05:44:53.924Z,524.0769
2023-05-02T05:45:55.751Z,521.6923
2023-05-02T05:46:57.620Z,521.5385
2023-05-02T05:47:59.486Z,521.1539
2023-05-02T05:49:01.262Z,523.6154
2023-05-02T05:50:03.398Z,523.7692
2023-05-02T05:51:04.931Z,519.7692
2023-05-02T05:52:06.767Z,534.0769
2023-05-02T05:53:08.732Z,553.0769
2023-05-02T05:54:10.451Z,561.9231
2023-05-02T05:55:12.306Z,556.3846
2023-05-02T05:56:14.154Z,549.6923
2023-05-02T05:57:15.998Z,518.3077
2023-05-02T05:58:17.814Z,518.0000
2023-05-02T05:59:19.666Z,516.6154
2023-05-02T06:00:21.496Z,520.4615
2023-05-02T06:01:23.331Z,522.4615
2023-05-02T06:02:25.204Z,522.0000
2023-05-02T06:03:27.125Z,520.9231
2023-05-02T06:04:28.916Z,513.9231
2023-05-02T06:05:30.715Z,514.6923
2023-05-02T06:06:32.576Z,515.8461
2023-05-02T06:07:34.362Z,516.1539
2023-05-02T06:08:36.277Z,535.1539
2023-05-02T06:09:38.037Z,541.9231
2023-05-02T06:10:39.883Z,555.7692
2023-05-02T06:11:41.703Z,557.2308
2023-05-02T06:12:43.544Z,527.4615
2023-05-02T06:13:45.377Z,529.2308
2023-05-02T06:14:47.210Z,522.6154
2023-05-02T06:15:49.081Z,519.8461
2023-05-02T06:16:50.885Z,519.8461
2023-05-02T06:17:52.818Z,518.3077
2023-05-02T06:18:54.554Z,516.0000
2023-05-02T06:19:56.364Z,516.3077
2023-05-02T06:20:58.226Z,515.0769
2023-05-02T06:22:00.108Z,520.0769
2023-05-02T06:23:01.895Z,520.8461
2023-05-02T06:24:03.723Z,518.0769
2023-05-02T06:25:05.564Z,515.6923
2023-05-02T06:26:07.393Z,522.7692
2023-05-02T06:27:09.225Z,546.8461
2023-05-02T06:28:11.073Z,530.3077
2023-05-02T06:29:12.892Z,576.0769
2023-05-02T06:30:14.766Z,531.7692
2023-05-02T06:31:16.621Z,541.6154
2023-05-02T06:32:18.410Z,860.6923
2023-05-02T06:33:20.239Z,1374.9231
2023-05-02T06:34:22.084Z,1513.3077
2023-05-02T06:35:23.894Z,1545.4615
2023-05-02T06:36:25.738Z,1551.6154
2023-05-02T06:37:27.572Z,1549.2307
2023-05-02T06:38:29.417Z,1542.6154
2023-05-02T06:39:31.244Z,1540.7693
2023-05-02T06:40:33.096Z,1542.2307
2023-05-02T06:41:34.933Z,1545.5385
2023-05-02T06:42:36.771Z,1550.8462
2023-05-02T06:43:38.679Z,1551.2307
2023-05-02T06:44:40.435Z,1557.8462
2023-05-02T06:45:42.292Z,1539.6154
2023-05-02T06:46:44.196Z,1556.8462
2023-05-02T06:47:46.066Z,1559.8462
2023-05-02T06:48:47.829Z,1540.0000
2023-05-02T06:49:49.645Z,1544.2307
2023-05-02T06:50:51.487Z,1525.3077
2023-05-02T06:51:53.297Z,1520.7693
2023-05-02T06:52:55.175Z,1517.2307
2023-05-02T06:53:56.969Z,1516.7693
2023-05-02T06:54:58.840Z,1516.6923
2023-05-02T06:56:00.645Z,1520.8462
2023-05-02T06:57:02.496Z,1509.2307
2023-05-02T06:58:04.354Z,1502.2307
2023-05-02T06:59:06.159Z,1501.6923
2023-05-02T07:00:08.208Z,1505.0000
2023-05-02T07:01:09.895Z,1509.5385
2023-05-02T07:02:11.667Z,1536.4615
2023-05-02T07:03:13.565Z,1511.4615
2023-05-02T07:04:15.390Z,1539.8462
2023-05-02T07:05:17.234Z,1524.0000
2023-05-02T07:06:19.144Z,1500.4615
2023-05-02T07:07:20.870Z,1493.7693
2023-05-02T07:08:22.725Z,1493.9231
2023-05-02T07:09:24.552Z,1490.6154
2023-05-02T07:10:26.430Z,1487.6154
2023-05-02T07:11:28.218Z,1486.1538
2023-05-02T07:12:30.041Z,1487.7693
2023-05-02T07:13:31.881Z,1484.3846
2023-05-02T07:14:33.724Z,1485.0000
2023-05-02T07:15:35.559Z,1483.0000
2023-05-02T07:16:37.489Z,1479.3077
2023-05-02T07:17:39.245Z,1476.0769
2023-05-02T07:18:41.080Z,1476.3846
2023-05-02T07:19:45.379Z,1480.6923
2023-05-02T07:20:44.753Z,1525.4615
2023-05-02T07:21:46.577Z,1127.6154
2023-05-02T07:22:48.410Z,660.6154
2023-05-02T07:23:50.237Z,507.9231
2023-05-02T07:24:52.078Z,470.3846
2023-05-02T07:25:53.906Z,460.3846
2023-05-02T07:27:03.570Z,455.0769
2023-05-02T07:27:57.609Z,452.8333
2023-05-02T07:28:59.437Z,450.8462
2023-05-02T07:30:01.841Z,448.0769
2023-05-02T07:31:03.102Z,445.0000
2023-05-02T07:32:04.979Z,444.0000
2023-05-02T07:33:06.830Z,446.3077
2023-05-02T07:34:08.621Z,447.0000
2023-05-02T07:35:10.489Z,448.1538
2023-05-02T07:36:12.291Z,454.0769
2023-05-02T07:37:22.111Z,455.4615
2023-05-02T07:38:16.006Z,475.9167
2023-05-02T07:39:17.796Z,480.3077
2023-05-02T07:40:19.636Z,475.9231
2023-05-02T07:41:21.515Z,470.0769
2023-05-02T07:42:23.319Z,466.3846
2023-05-02T07:43:25.141Z,458.8462
2023-05-02T07:44:26.978Z,455.2308
2023-05-02T07:45:28.819Z,452.2308
2023-05-02T07:46:30.689Z,449.3077
2023-05-02T07:47:32.480Z,450.1538
2023-05-02T07:48:34.312Z,446.3077
2023-05-02T07:49:36.145Z,443.9231
2023-05-02T07:50:37.969Z,443.4615
2023-05-02T07:51:39.811Z,445.6923
2023-05-02T07:52:41.634Z,445.7692
2023-05-02T07:53:43.466Z,446.1538
2023-05-02T07:54:45.295Z,460.6923
2023-05-02T07:55:47.134Z,464.3077
2023-05-02T07:56:48.988Z,482.3077
2023-05-02T07:57:50.823Z,468.5385
2023-05-02T07:58:52.687Z,470.4615
2023-05-02T07:59:54.500Z,459.6154
2023-05-02T08:00:56.311Z,465.2308
2023-05-02T08:01:58.162Z,459.5385
2023-05-02T08:03:00.132Z,457.6923
2023-05-02T08:04:01.985Z,453.4615
2023-05-02T08:05:03.689Z,452.3846
2023-05-02T08:06:05.542Z,451.2308
2023-05-02T08:07:07.334Z,450.5385
2023-05-02T08:08:09.175Z,451.0000
2023-05-02T08:09:11.006Z,450.7692
2023-05-02T08:10:12.824Z,453.2308
2023-05-02T08:11:14.662Z,456.6154
2023-05-02T08:12:16.499Z,468.6154
2023-05-02T08:13:18.334Z,478.7692
2023-05-02T08:14:20.187Z,477.9231
2023-05-02T08:15:22.033Z,487.9231
2023-05-02T08:16:23.899Z,447.0000
2023-05-02T08:17:25.686Z,452.6923
2023-05-02T08:18:27.513Z,455.3846
2023-05-02T08:19:29.358Z,451.5385
2023-05-02T08:20:31.211Z,450.5385
2023-05-02T08:21:33.120Z,450.7692
2023-05-02T08:22:34.927Z,455.8462
2023-05-02T08:23:36.733Z,457.0769
2023-05-02T08:24:38.586Z,456.0000
2023-05-02T08:25:40.403Z,453.4615
2023-05-02T08:26:42.220Z,452.9231
2023-05-02T08:27:44.077Z,459.0000
2023-05-02T08:28:45.901Z,464.0769
2023-05-02T08:29:47.757Z,469.0000
2023-05-02T08:30:49.604Z,457.0000
2023-05-02T08:31:51.446Z,496.3077
2023-05-02T08:32:53.288Z,469.8462
2023-05-02T08:33:55.128Z,490.0000
2023-05-02T08:34:56.936Z,478.5385
2023-05-02T08:35:58.787Z,473.4615
2023-05-02T08:37:00.605Z,466.3077
2023-05-02T08:38:02.470Z,460.7692
2023-05-02T08:39:04.289Z,457.6154
2023-05-02T08:40:06.128Z,455.3077
2023-05-02T08:41:07.961Z,459.3077
2023-05-02T08:42:09.791Z,462.3077
2023-05-02T08:43:11.651Z,462.0000
2023-05-02T08:44:13.476Z,456.1538
2023-05-02T08:45:16.520Z,455.3077
2023-05-02T08:46:17.278Z,455.8462
2023-05-02T08:47:19.209Z,465.8462
2023-05-02T08:48:21.012Z,468.3846
2023-05-02T08:49:22.673Z,504.3846
2023-05-02T08:50:24.515Z,488.7692
2023-05-02T08:51:26.368Z,513.9231
2023-05-02T08:52:28.182Z,1570.4615
2023-05-02T08:53:30.035Z,2213.4614
2023-05-02T08:54:31.861Z,2367.4614
2023-05-02T08:55:33.702Z,2418.7693
2023-05-02T08:56:35.544Z,2434.1538
2023-05-02T08:57:37.384Z,2426.6155
2023-05-02T08:58:39.208Z,2419.5386
2023-05-02T08:59:41.063Z,2416.8462
2023-05-02T09:00:42.956Z,2418.5386
2023-05-02T09:01:44.833Z,2420.9231
2023-05-02T09:02:46.668Z,2410.0769
2023-05-02T09:03:48.512Z,2393.3076
2023-05-02T09:04:50.320Z,2397.2307
2023-05-02T09:05:52.100Z,2434.4614
2023-05-02T09:06:53.959Z,2439.3076
2023-05-02T09:07:55.755Z,2407.1538
2023-05-02T09:08:57.778Z,2420.0769
2023-05-02T09:09:59.508Z,2395.5386
2023-05-02T09:11:01.289Z,2353.3845
2023-05-02T09:12:03.126Z,2351.3076
2023-05-02T09:13:04.997Z,2356.9231
2023-05-02T09:14:06.820Z,2365.7693
2023-05-02T09:15:08.641Z,2365.7693
2023-05-02T09:16:10.515Z,2361.7693
2023-05-02T09:17:12.332Z,2350.0769
2023-05-02T09:18:14.162Z,2343.6155
2023-05-02T09:19:16.013Z,2333.6924
2023-05-02T09:20:17.847Z,2334.5386
2023-05-02T09:21:21.284Z,2342.8462
2023-05-02T09:22:21.560Z,2368.8462
2023-05-02T09:23:23.375Z,2329.3845
2023-05-02T09:24:25.223Z,2354.9231
2023-05-02T09:25:27.126Z,2377.5386
2023-05-02T09:26:30.354Z,2338.7693
2023-05-02T09:27:30.804Z,2315.6155
2023-05-02T09:28:32.641Z,2320.3845
2023-05-02T09:29:34.454Z,2312.7693
2023-05-02T09:30:36.297Z,2295.1538
2023-05-02T09:31:55.032Z,2292.0769
2023-05-02T09:32:40.974Z,2292.6155
2023-05-02T09:33:41.818Z,2289.3076
2023-05-02T09:34:43.649Z,2294.0000
2023-05-02T09:35:45.539Z,2198.0000
2023-05-02T09:36:47.320Z,1825.3846
2023-05-02T09:37:49.155Z,1678.0000
2023-05-02T09:38:51.018Z,1651.4615
2023-05-02T09:39:52.826Z,1645.2307
2023-05-02T09:40:54.667Z,1666.8462
2023-05-02T09:41:56.513Z,1656.9231
2023-05-02T09:42:58.320Z,1676.6154
2023-05-02T09:44:00.181Z,1626.4615
2023-05-02T09:45:02.093Z,1627.2307
2023-05-02T09:46:03.868Z,1627.5385
2023-05-02T09:47:05.691Z,1620.1538
2023-05-02T09:48:07.553Z,1627.6923
2023-05-02T09:49:09.363Z,1627.6154
2023-05-02T09:50:11.196Z,1614.6923
2023-05-02T09:51:13.026Z,1606.9231
2023-05-02T09:52:14.848Z,1603.2307
2023-05-02T09:53:16.690Z,1604.4615
2023-05-02T09:54:18.531Z,1607.6923
2023-05-02T09:55:20.376Z,1607.4615
2023-05-02T09:56:23.896Z,1606.3846
2023-05-02T09:57:24.035Z,1596.1538
2023-05-02T09:58:25.882Z,1598.7693
2023-05-02T09:59:27.726Z,1648.2307
2023-05-02T10:00:29.567Z,1634.4615
2023-05-02T10:01:31.404Z,1602.9231
2023-05-02T10:02:33.281Z,1597.8462
2023-05-02T10:03:35.081Z,1583.1538
2023-05-02T10:04:36.955Z,1578.1538
2023-05-02T10:05:38.761Z,1578.1538
2023-05-02T10:06:40.678Z,1578.6154
2023-05-02T10:07:42.443Z,1580.2307
2023-05-02T10:08:44.285Z,1585.6154
2023-05-02T10:09:46.148Z,1581.8462
2023-05-02T10:10:47.937Z,1572.4615
2023-05-02T10:11:49.785Z,1566.4615
2023-05-02T10:12:51.614Z,1563.4615
2023-05-02T10:13:53.461Z,1570.9231
2023-05-02T10:14:55.323Z,1583.6154
2023-05-02T10:15:57.259Z,1584.0000
2023-05-02T10:16:58.988Z,1612.4615
2023-05-02T10:18:00.934Z,1568.3077
2023-05-02T10:19:02.664Z,1583.5385
2023-05-02T10:20:04.504Z,1564.9231
2023-05-02T10:21:06.334Z,1562.6154
2023-05-02T10:22:08.184Z,1558.5385
2023-05-02T10:23:10.018Z,1549.3846
2023-05-02T10:24:11.862Z,1545.3077
2023-05-02T10:25:13.737Z,1543.5385
2023-05-02T10:26:15.542Z,1546.7693
2023-05-02T10:27:17.373Z,1548.3846
2023-05-02T10:28:19.206Z,1546.6923
2023-05-02T10:29:21.047Z,1540.8462
2023-05-02T10:30:22.884Z,1534.6154
2023-05-02T10:31:24.838Z,1532.2307
2023-05-02T10:32:26.613Z,1545.9231
2023-05-02T10:33:28.370Z,1537.3077
2023-05-02T10:34:30.210Z,1601.4615
2023-05-02T10:35:32.045Z,1582.6154
2023-05-02T10:36:33.880Z,1527.0769
2023-05-02T10:37:35.751Z,1521.9231
2023-05-02T10:38:37.612Z,1520.6923
2023-05-02T10:39:39.406Z,1515.6154
2023-05-02T10:40:41.241Z,1514.0000
2023-05-02T10:41:43.095Z,1511.5385
2023-05-02T10:42:44.915Z,1508.8462
2023-05-02T10:43:46.787Z,1499.0769
2023-05-02T10:44:48.589Z,1497.7693
2023-05-02T10:45:50.419Z,1502.9231
2023-05-02T10:46:52.283Z,1506.7693
2023-05-02T10:47:54.145Z,1508.2307
2023-05-02T10:48:55.920Z,1504.9231
2023-05-02T10:49:57.765Z,1497.9231
2023-05-02T10:50:59.597Z,1524.3077
2023-05-02T10:52:01.424Z,1529.3077
2023-05-02T10:53:03.275Z,1502.5385
2023-05-02T10:54:05.110Z,1527.2307
2023-05-02T10:55:06.938Z,1509.7693
2023-05-02T10:56:08.814Z,1477.3846
2023-05-02T10:57:10.613Z,1471.1538
2023-05-02T10:58:12.471Z,1476.8462
2023-05-02T10:59:14.300Z,1481.0769
2023-05-02T11:00:16.140Z,1481.9231
2023-05-02T11:01:18.004Z,1485.4615
2023-05-02T11:02:19.893Z,1472.7693
2023-05-02T11:03:21.698Z,1466.9231
2023-05-02T11:04:23.493Z,1465.0769
2023-05-02T11:05:25.352Z,1465.0000
2023-05-02T11:06:27.191Z,1474.1538
2023-05-02T11:07:29.039Z,1469.2307
2023-05-02T11:08:30.867Z,1484.7693
2023-05-02T11:09:32.721Z,1511.5385
2023-05-02T11:10:34.564Z,1482.2307
2023-05-02T11:11:36.367Z,1476.3846
2023-05-02T11:12:38.203Z,1481.3846
2023-05-02T11:13:40.062Z,1465.4615
2023-05-02T11:14:41.874Z,1460.7693
2023-05-02T11:15:43.768Z,1452.0000
2023-05-02T11:16:45.592Z,1442.2307
2023-05-02T11:17:47.416Z,1440.6923
2023-05-02T11:18:49.241Z,1444.2307
2023-05-02T11:19:51.089Z,1443.6923
2023-05-02T11:20:52.906Z,1440.3077
2023-05-02T11:21:54.749Z,1434.0000
2023-05-02T11:22:56.585Z,1426.8462
2023-05-02T11:23:58.407Z,1426.6923
2023-05-02T11:25:00.418Z,1442.8462
2023-05-02T11:26:02.128Z,1459.2307
2023-05-02T11:27:03.933Z,1488.0000
2023-05-02T11:28:05.770Z,1448.6154
2023-05-02T11:29:07.618Z,1445.0000
2023-05-02T11:30:09.580Z,1443.5385
2023-05-02T11:31:11.291Z,1427.8462
2023-05-02T11:32:13.177Z,1423.0000
2023-05-02T11:33:15.039Z,1426.3846
2023-05-02T11:34:16.793Z,1427.8462
2023-05-02T11:35:18.624Z,1417.8462
2023-05-02T11:36:20.483Z,1407.6923
2023-05-02T11:37:22.319Z,1407.1538
2023-05-02T11:38:24.152Z,1407.3077
2023-05-02T11:39:25.987Z,1410.2307
2023-05-02T11:40:27.831Z,1409.9231
2023-05-02T11:41:29.656Z,1410.3077
2023-05-02T11:42:31.518Z,1400.2307
2023-05-02T11:43:33.356Z,1431.5385
2023-05-02T11:44:35.177Z,1426.9231
2023-05-02T11:45:37.002Z,1415.7693
2023-05-02T11:46:39.001Z,1436.5385
2023-05-02T11:47:40.739Z,1405.6154
2023-05-02T11:48:42.516Z,1395.1538
2023-05-02T11:49:44.351Z,1388.7693
2023-05-02T11:50:49.674Z,1380.7693
2023-05-02T11:51:48.032Z,1381.4615
2023-05-02T11:52:49.869Z,1384.5385
2023-05-02T11:53:51.715Z,1385.8462
2023-05-02T11:54:53.568Z,1382.2307
2023-05-02T11:55:55.396Z,1375.6154
2023-05-02T11:56:57.226Z,1374.3077
2023-05-02T11:57:59.057Z,1374.6923
2023-05-02T11:59:00.913Z,1380.8462
2023-05-02T12:00:02.752Z,1404.0000
2023-05-02T12:01:04.575Z,1399.5385
2023-05-02T12:02:06.410Z,1374.5385
2023-05-02T12:03:08.378Z,1394.9231
2023-05-02T12:04:10.092Z,1383.6923
2023-05-02T12:05:11.980Z,1370.8462
2023-05-02T12:06:14.113Z,1370.4615
2023-05-02T12:07:15.637Z,1366.3846
2023-05-02T12:08:17.444Z,1362.6154
2023-05-02T12:09:19.338Z,1356.0769
2023-05-02T12:10:21.123Z,1351.6923
2023-05-02T12:11:22.958Z,1351.4615
2023-05-02T12:12:24.791Z,1353.1538
2023-05-02T12:13:26.651Z,1360.0769
2023-05-02T12:14:28.451Z,1355.4615
2023-05-02T12:15:30.291Z,1344.2307
2023-05-02T12:16:32.143Z,1348.9231
2023-05-02T12:17:34.006Z,1361.3077
2023-05-02T12:18:35.833Z,1358.0000
2023-05-02T12:19:37.652Z,1409.7693
2023-05-02T12:20:39.492Z,1353.6923
2023-05-02T12:21:41.313Z,1339.3846
2023-05-02T12:22:43.144Z,1336.6154
2023-05-02T12:23:44.995Z,1332.3846
2023-05-02T12:24:46.825Z,1330.6923
2023-05-02T12:25:48.667Z,1328.3846
2023-05-02T12:26:51.872Z,1328.1538
2023-05-02T12:27:52.335Z,1327.2307
2023-05-02T12:28:54.184Z,1318.9231
2023-05-02T12:29:56.005Z,1314.3077
2023-05-02T12:30:57.833Z,1315.5385
2023-05-02T12:31:59.797Z,1314.8462
2023-05-02T12:33:01.562Z,1315.7693
2023-05-02T12:34:03.375Z,1325.6923
2023-05-02T12:35:05.805Z,1320.7693
2023-05-02T12:36:07.042Z,1337.9231
2023-05-02T12:37:08.871Z,1372.1538
2023-05-02T12:38:10.696Z,1362.0769
2023-05-02T12:39:12.539Z,1332.7693
2023-05-02T12:40:14.409Z,1323.5385
2023-05-02T12:41:16.207Z,1311.0000
2023-05-02T12:42:18.051Z,1297.0769
2023-05-02T12:43:19.885Z,1293.6923
2023-05-02T12:44:21.730Z,1295.0000
2023-05-02T12:45:23.580Z,1298.5385
2023-05-02T12:46:25.491Z,1298.4615
2023-05-02T12:47:27.399Z,1295.1538
2023-05-02T12:48:29.098Z,1286.6154
2023-05-02T12:49:30.939Z,1287.7693
2023-05-02T12:50:32.771Z,1288.9231
2023-05-02T12:51:34.877Z,1304.3077
2023-05-02T12:52:36.460Z,1335.3077
2023-05-02T12:53:38.285Z,1310.7693
2023-05-02T12:54:40.115Z,1305.8462
2023-05-02T12:55:41.964Z,1307.2307
2023-05-02T12:56:43.951Z,1299.5385
2023-05-02T12:57:45.645Z,1292.9231
2023-05-02T12:58:47.498Z,1287.3846
2023-05-02T12:59:49.308Z,1284.2307
2023-05-02T13:00:51.174Z,1279.2307
2023-05-02T13:01:52.978Z,1270.2307
2023-05-02T13:02:54.854Z,1268.1538
2023-05-02T13:03:56.659Z,1272.6154
2023-05-02T13:04:58.496Z,1274.6154
2023-05-02T13:06:00.379Z,1272.2307
2023-05-02T13:07:02.225Z,1269.6923
2023-05-02T13:08:04.086Z,1267.6154
2023-05-02T13:09:05.872Z,1274.5385
2023-05-02T13:10:07.737Z,1284.2307
2023-05-02T13:11:09.542Z,1295.9231
2023-05-02T13:12:11.394Z,1294.0769
2023-05-02T13:13:13.245Z,1290.6154
2023-05-02T13:14:15.073Z,1252.2307
2023-05-02T13:15:16.936Z,1244.5385
2023-05-02T13:16:18.942Z,1245.3077
2023-05-02T13:17:20.715Z,1249.2307
2023-05-02T13:18:22.451Z,1252.1538
2023-05-02T13:19:24.261Z,1253.7693
2023-05-02T13:20:26.094Z,1251.7693
2023-05-02T13:21:27.927Z,1242.9231
2023-05-02T13:22:29.772Z,1240.8462
2023-05-02T13:23:31.592Z,1241.7693
2023-05-02T13:24:33.419Z,1246.8462
2023-05-02T13:25:35.260Z,1252.3077
2023-05-02T13:26:37.150Z,1256.8462
2023-05-02T13:27:38.949Z,1256.6154
2023-05-02T13:28:40.838Z,1247.7693
2023-05-02T13:29:42.667Z,1264.1538
2023-05-02T13:30:44.527Z,1259.3846
2023-05-02T13:31:46.342Z,1247.8462
2023-05-02T13:32:48.203Z,1238.9231
2023-05-02T13:33:50.014Z,1232.0000
2023-05-02T13:34:51.854Z,1217.3846
2023-05-02T13:35:53.696Z,1221.0769
2023-05-02T13:36:55.536Z,1222.3077
2023-05-02T13:37:57.371Z,1224.1538
2023-05-02T13:38:59.225Z,1227.1538
2023-05-02T13:40:01.226Z,1225.6154
2023-05-02T13:41:02.884Z,1223.3846
2023-05-02T13:42:06.100Z,1222.8462
2023-05-02T13:43:06.551Z,1230.5385
2023-05-02T13:44:08.390Z,1242.1538
2023-05-02T13:45:10.251Z,1268.8462
2023-05-02T13:46:12.112Z,1256.1538
2023-05-02T13:47:13.915Z,1234.1538
2023-05-02T13:48:15.779Z,1203.3846
2023-05-02T13:49:17.588Z,1210.7693
2023-05-02T13:50:19.438Z,1215.8462
2023-05-02T13:51:21.282Z,1212.5385
2023-05-02T13:52:23.113Z,1211.0769
2023-05-02T13:53:24.948Z,1203.1538
2023-05-02T13:54:26.792Z,1195.8462
2023-05-02T13:55:28.634Z,1193.2307
2023-05-02T13:56:30.470Z,1194.7693
2023-05-02T13:57:32.315Z,1195.9231
2023-05-02T13:58:34.183Z,1191.3846
2023-05-02T13:59:36.132Z,1189.8462
2023-05-02T14:00:37.806Z,1186.5385
2023-05-02T14:01:39.703Z,1204.4615
2023-05-02T14:02:41.590Z,1236.4615
2023-05-02T14:03:43.409Z,1236.5385
2023-05-02T14:04:45.153Z,1220.0769
2023-05-02T14:05:47.001Z,1192.8462
2023-05-02T14:06:48.898Z,1183.6923
2023-05-02T14:07:50.673Z,1179.6923
2023-05-02T14:08:52.597Z,1180.0000
2023-05-02T14:09:54.348Z,1181.6923
2023-05-02T14:10:56.240Z,1182.0769
2023-05-02T14:11:58.041Z,1182.1538
2023-05-02T14:12:59.869Z,1171.5385
2023-05-02T14:14:01.705Z,1166.2307
2023-05-02T14:15:03.643Z,1167.7693
2023-05-02T14:16:05.433Z,1169.4615
2023-05-02T14:17:07.237Z,1179.4615
2023-05-02T14:18:09.311Z,1196.6923
2023-05-02T14:19:19.556Z,1201.1538
2023-05-02T14:20:12.744Z,1206.5000
2023-05-02T14:21:14.562Z,1188.2307
2023-05-02T14:22:16.406Z,1183.4615
2023-05-02T14:23:18.235Z,1184.6923
2023-05-02T14:24:20.072Z,1179.0769
2023-05-02T14:25:21.917Z,1168.9231
2023-05-02T14:26:23.764Z,1161.4615
2023-05-02T14:27:25.597Z,1157.0000
2023-05-02T14:28:27.430Z,1156.0000
2023-05-02T14:29:29.274Z,1159.3077
2023-05-02T14:30:31.108Z,1158.6923
2023-05-02T14:31:33.015Z,1153.2307
2023-05-02T14:32:34.865Z,1149.8462
2023-05-02T14:33:36.616Z,1146.4615
2023-05-02T14:34:38.460Z,1158.0769
2023-05-02T14:35:40.286Z,1179.9231
2023-05-02T14:36:42.120Z,1188.0769
2023-05-02T14:37:43.957Z,1166.0000
2023-05-02T14:38:45.813Z,1183.3846
2023-05-02T14:39:50.735Z,1156.0769
2023-05-02T14:40:49.469Z,1144.9231
2023-05-02T14:41:51.312Z,1146.3846
2023-05-02T14:42:53.164Z,1145.3077
2023-05-02T14:43:54.978Z,1140.0769
2023-05-02T14:44:58.906Z,1137.0769
2023-05-02T14:45:58.648Z,1130.6923
2023-05-02T14:47:00.544Z,1131.0000
2023-05-02T14:48:02.392Z,1133.6154
2023-05-02T14:49:04.169Z,1131.9231
2023-05-02T14:50:06.075Z,1129.7693
2023-05-02T14:51:07.826Z,1129.2307
2023-05-02T14:52:09.681Z,1133.9231
2023-05-02T14:53:11.512Z,1145.3846
2023-05-02T14:54:13.360Z,1139.0769
2023-05-02T14:55:15.190Z,1172.2307
2023-05-02T14:56:17.021Z,1172.0769
2023-05-02T14:57:18.895Z,1118.6923
2023-05-02T14:58:21.040Z,1119.9231
2023-05-02T14:59:22.673Z,1113.3846
2023-05-02T15:00:24.370Z,1113.3846
2023-05-02T15:01:26.294Z,1114.7693
2023-05-02T15:02:28.123Z,1116.6154
2023-05-02T15:03:30.026Z,1115.9231
2023-05-02T15:04:31.990Z,1109.8462
2023-05-02T15:05:33.536Z,1110.5385
2023-05-02T15:06:35.975Z,1109.6154
2023-05-02T15:07:37.226Z,1108.5385
2023-05-02T15:08:39.274Z,1109.7693
2023-05-02T15:09:40.908Z,1132.0000
2023-05-02T15:10:42.740Z,1132.7693
2023-05-02T15:11:44.585Z,1103.0000
2023-05-02T15:12:46.408Z,1108.8462
2023-05-02T15:13:48.271Z,1124.3077
2023-05-02T15:14:50.094Z,1130.7693
2023-05-02T15:15:51.949Z,1111.3077
2023-05-02T15:16:53.825Z,1105.0000
2023-05-02T15:17:55.696Z,1095.8462
2023-05-02T15:18:57.458Z,1087.0769
2023-05-02T15:19:59.426Z,1086.8462
2023-05-02T15:21:01.130Z,1089.9231
2023-05-02T15:22:02.981Z,1087.6154
2023-05-02T15:23:04.865Z,1085.8462
2023-05-02T15:24:06.663Z,1086.0769
2023-05-02T15:25:08.500Z,1084.2307
2023-05-02T15:26:10.330Z,1085.2307
2023-05-02T15:27:12.182Z,1092.8462
2023-05-02T15:28:14.039Z,1119.0000
2023-05-02T15:29:15.849Z,1132.7693
2023-05-02T15:30:18.092Z,1116.9231
2023-05-02T15:31:19.563Z,1094.6923
2023-05-02T15:32:21.451Z,1080.2307
2023-05-02T15:33:23.206Z,1088.6154
2023-05-02T15:34:25.074Z,1086.5385
2023-05-02T15:35:26.890Z,1083.0000
2023-05-02T15:36:28.766Z,1079.9231
2023-05-02T15:37:30.582Z,1073.8462
2023-05-02T15:38:32.399Z,1069.9231
2023-05-02T15:39:34.253Z,1068.6154
2023-05-02T15:40:36.080Z,1071.5385
2023-05-02T15:41:37.928Z,1075.3846
2023-05-02T15:42:39.773Z,1070.6923
2023-05-02T15:43:41.608Z,1061.8462
2023-05-02T15:44:43.446Z,1082.6923
2023-05-02T15:45:45.278Z,1087.3846
2023-05-02T15:46:47.349Z,1098.6923
2023-05-02T15:47:48.942Z,1104.5385
2023-05-02T15:48:50.813Z,1081.6154
2023-05-02T15:49:52.614Z,1067.6154
2023-05-02T15:50:54.485Z,1057.6923
2023-05-02T15:51:56.316Z,1055.3846
2023-05-02T15:52:58.151Z,1051.3077
2023-05-02T15:53:59.967Z,1053.9231
2023-05-02T15:55:01.837Z,1053.4615
2023-05-02T15:56:03.637Z,1054.6154
2023-05-02T15:57:05.476Z,1050.5385
2023-05-02T15:58:07.294Z,1048.5385
2023-05-02T15:59:09.131Z,1049.1538
2023-05-02T16:00:10.981Z,1053.5385
2023-05-02T16:01:12.855Z,1067.6923
2023-05-02T16:02:14.657Z,1063.1538
2023-05-02T16:03:16.494Z,1069.2307
2023-05-02T16:04:18.349Z,1089.9231
2023-05-02T16:05:20.167Z,1059.5385
2023-05-02T16:06:22.048Z,1051.3077
2023-05-02T16:07:23.848Z,1054.8462
2023-05-02T16:08:25.685Z,1051.4615
2023-05-02T16:09:27.516Z,1040.2307
2023-05-02T16:10:29.357Z,1033.4615
2023-05-02T16:11:31.259Z,1026.6923
2023-05-02T16:12:33.034Z,1033.7693
2023-05-02T16:13:34.881Z,1035.5385
2023-05-02T16:14:36.727Z,1035.5385
2023-05-02T16:15:38.557Z,1030.3846
2023-05-02T16:16:40.593Z,1024.9231
2023-05-02T16:17:42.274Z,1028.2307
2023-05-02T16:18:44.091Z,1047.0000
2023-05-02T16:19:45.927Z,1050.9231
2023-05-02T16:20:47.794Z,1064.6923
2023-05-02T16:21:49.610Z,1056.8462
2023-05-02T16:22:51.451Z,1046.0000
2023-05-02T16:23:53.279Z,1035.4615
2023-05-02T16:24:55.133Z,1026.3077
2023-05-02T16:25:56.966Z,1024.1538
2023-05-02T16:26:58.829Z,1021.3846
2023-05-02T16:28:00.648Z,1026.2307
2023-05-02T16:29:02.496Z,1024.6154
2023-05-02T16:30:04.604Z,1024.6154
2023-05-02T16:31:06.229Z,1018.9231
2023-05-02T16:32:08.035Z,1020.6923
2023-05-02T16:33:09.902Z,1022.7692
2023-05-02T16:34:11.696Z,1024.4615
2023-05-02T16:35:13.560Z,1012.0000
2023-05-02T16:36:15.375Z,1021.3077
2023-05-02T16:37:17.244Z,1042.7693
2023-05-02T16:38:19.065Z,1051.2307
2023-05-02T16:39:20.926Z,1025.5385
2023-05-02T16:40:22.749Z,1023.1539
2023-05-02T16:41:24.605Z,1011.6154
2023-05-02T16:42:26.420Z,1010.4615
2023-05-02T16:43:28.267Z,1011.3846
2023-05-02T16:44:30.103Z,1008.0000
2023-05-02T16:45:31.957Z,1010.4615
2023-05-02T16:46:33.849Z,1013.9231
2023-05-02T16:47:35.637Z,1010.5385
2023-05-02T16:48:37.467Z,1001.6923
2023-05-02T16:49:39.313Z,992.4615
2023-05-02T16:50:41.143Z,990.0000
2023-05-02T16:51:43.014Z,995.0769
2023-05-02T16:52:44.827Z,1025.1538
2023-05-02T16:53:46.647Z,1034.3846
2023-05-02T16:54:48.498Z,1025.6154
2023-05-02T16:55:50.343Z,1012.8461
2023-05-02T16:56:52.175Z,1019.9231
2023-05-02T16:57:53.993Z,1000.4615
2023-05-02T16:58:55.854Z,1002.3077
2023-05-02T16:59:57.670Z,1000.3077
2023-05-02T17:00:59.562Z,989.6923
2023-05-02T17:02:01.395Z,984.9231
2023-05-02T17:03:05.212Z,978.7692
2023-05-02T17:04:05.029Z,979.1539
2023-05-02T17:05:06.891Z,979.3077
2023-05-02T17:06:08.731Z,981.6923
2023-05-02T17:07:10.554Z,985.2308
2023-05-02T17:08:12.408Z,985.2308
2023-05-02T17:09:14.239Z,982.1539
2023-05-02T17:10:16.112Z,997.4615
2023-05-02T17:11:17.916Z,1016.9231
2023-05-02T17:12:19.781Z,1021.2308